Time;durP1;ratioP1;P1;durP2;ratioP2;P2;SDS_P1;SDS_P2;PMS_P1;PMS_P2;Temp;Humidity;BMP_temperature;BMP_pressure;BME280_temperature;BME280_humidity;BME280_pressure;Samples;Min_cycle;Max_cycle;Signal;HPM_P1;HPM_P2
2022/06/18 00:01:09;;;;;;;1.95;1.55;;;;;;;20.78;42.14;100989.13;20826548;27;99392;-78
2022/06/18 00:21:29;;;;;;;2.70;1.73;;;;;;;20.59;43.00;101002.63;20822396;27;102386;-79
2022/06/18 00:31:32;;;;;;;2.25;1.77;;;;;;;20.48;43.47;101000.69;20815233;27;101636;-79
2022/06/18 00:41:33;;;;;;;33.87;4.33;;;;;;;20.43;43.88;101004.56;20827611;27;98370;-78
2022/06/18 00:51:46;;;;;;;5.75;2.72;;;;;;;20.42;43.25;101010.75;20819480;27;98167;-79
2022/06/18 01:01:48;;;;;;;4.23;1.73;;;;;;;20.28;42.92;101012.47;20813928;27;97961;-79
2022/06/18 01:11:49;;;;;;;2.30;1.80;;;;;;;20.30;42.63;101005.34;20826542;27;97539;-79
2022/06/18 01:22:23;;;;;;;2.67;1.45;;;;;;;20.37;42.80;101004.94;20825302;27;97404;-78
2022/06/18 01:32:24;;;;;;;2.22;1.75;;;;;;;20.47;42.88;100991.09;20823031;27;97135;-79
2022/06/18 01:42:31;;;;;;;3.78;1.55;;;;;;;20.27;43.62;100991.53;20822578;27;98118;-79
2022/06/18 01:52:46;;;;;;;2.55;1.50;;;;;;;20.10;44.29;101000.50;20832706;27;97161;-78
2022/06/18 02:02:47;;;;;;;3.15;1.80;;;;;;;19.98;44.97;100996.84;20816723;27;98553;-79
2022/06/18 02:12:48;;;;;;;3.50;1.90;;;;;;;19.91;45.08;100990.28;20815016;27;100398;-78
2022/06/18 02:22:52;;;;;;;5.63;2.10;;;;;;;19.76;45.71;100981.56;20823857;27;99260;-79
2022/06/18 02:33:01;;;;;;;3.03;1.90;;;;;;;19.68;46.40;100988.13;20819045;27;97733;-79
2022/06/18 02:43:02;;;;;;;4.45;2.33;;;;;;;19.52;46.34;100975.09;20815456;27;98057;-78
2022/06/18 02:53:03;;;;;;;5.93;1.80;;;;;;;19.44;46.87;100985.19;20823728;27;98323;-79
2022/06/18 03:03:06;;;;;;;3.05;1.70;;;;;;;19.39;46.87;101004.81;20820139;27;101269;-79
2022/06/18 03:13:07;;;;;;;3.03;1.97;;;;;;;19.32;47.18;100999.06;20809978;27;101216;-79
2022/06/18 03:23:15;;;;;;;5.47;2.45;;;;;;;19.33;47.63;101008.66;20824007;27;101965;-79
2022/06/18 03:33:16;;;;;;;2.75;2.00;;;;;;;19.25;47.92;101001.22;20817795;27;97342;-79
2022/06/18 03:43:18;;;;;;;2.00;1.80;;;;;;;19.24;47.89;100998.69;20814117;27;97638;-78
2022/06/18 03:53:19;;;;;;;2.22;1.90;;;;;;;19.21;48.11;100994.47;20819422;27;97313;-78
2022/06/18 04:03:19;;;;;;;4.72;2.08;;;;;;;19.32;47.81;100994.69;20814564;27;97151;-77
2022/06/18 04:13:24;;;;;;;3.75;2.30;;;;;;;19.35;48.02;101001.53;20784431;27;97864;-78
2022/06/18 04:23:25;;;;;;;4.03;2.20;;;;;;;19.28;48.10;101005.47;20824941;27;97453;-78
2022/06/18 04:33:26;;;;;;;6.20;2.00;;;;;;;19.46;47.62;101014.03;20814678;27;99046;-78
2022/06/18 04:43:26;;;;;;;3.47;2.17;;;;;;;19.55;48.09;101015.25;20813174;27;98409;-79
2022/06/18 04:53:27;;;;;;;3.97;2.10;;;;;;;19.64;48.34;101028.66;20807997;27;99609;-79
2022/06/18 05:03:27;;;;;;;2.65;2.20;;;;;;;19.80;48.04;101030.38;20835788;27;98231;-77
2022/06/18 05:13:29;;;;;;;3.85;2.33;;;;;;;20.07;47.74;101048.03;20820497;27;98127;-78
2022/06/18 05:23:30;;;;;;;3.42;2.40;;;;;;;20.24;48.09;101046.97;20822645;27;101800;-79
2022/06/18 05:33:30;;;;;;;3.47;1.95;;;;;;;20.35;47.28;101049.78;20822339;27;99211;-78
2022/06/18 05:43:31;;;;;;;6.13;2.40;;;;;;;20.58;46.74;101060.59;20840651;27;97500;-81
2022/06/18 05:53:34;;;;;;;2.83;2.08;;;;;;;20.71;44.76;101071.19;20837573;27;98052;-81
2022/06/18 06:03:35;;;;;;;2.38;2.13;;;;;;;21.04;44.37;101070.78;20875713;27;97649;-81
2022/06/18 06:13:37;;;;;;;7.80;2.30;;;;;;;21.23;43.79;101064.31;20847699;27;97868;-82
2022/06/18 06:23:38;;;;;;;4.68;2.03;;;;;;;21.41;43.47;101057.81;20839136;27;98203;-80
2022/06/18 06:33:39;;;;;;;5.65;2.35;;;;;;;21.57;41.59;101069.97;20864594;27;97072;-81
2022/06/18 06:43:40;;;;;;;1.90;1.80;;;;;;;21.66;40.71;101058.78;20861456;27;100019;-80
2022/06/18 06:53:42;;;;;;;3.60;2.00;;;;;;;21.74;38.37;101055.66;20835690;27;98967;-76
2022/06/18 07:03:43;;;;;;;1.80;1.67;;;;;;;21.81;38.52;101048.13;20823361;27;98769;-78
2022/06/18 07:13:43;;;;;;;3.53;1.75;;;;;;;22.02;39.64;101037.88;20840831;27;97737;-77
2022/06/18 07:23:44;;;;;;;3.95;1.83;;;;;;;22.19;40.75;101040.16;20832769;27;99368;-80
2022/06/18 07:33:46;;;;;;;5.55;2.05;;;;;;;22.30;40.93;101028.84;20869637;27;97644;-79
2022/06/18 07:43:54;;;;;;;2.57;1.60;;;;;;;22.42;40.87;101039.50;20884525;27;97594;-80
2022/06/18 07:53:55;;;;;;;4.22;1.40;;;;;;;22.53;40.92;101027.22;20871317;27;97574;-81
2022/06/18 08:03:55;;;;;;;4.90;1.73;;;;;;;22.62;40.69;101023.06;20873319;27;101095;-81
2022/06/18 08:13:58;;;;;;;2.03;1.40;;;;;;;22.70;40.35;101018.06;20863804;27;97143;-80
2022/06/18 08:24:15;;;;;;;1.65;1.50;;;;;;;22.78;40.46;101017.47;20859028;27;96791;-81
2022/06/18 08:34:16;;;;;;;2.58;1.70;;;;;;;22.86;40.54;101008.97;20868500;27;97541;-81
2022/06/18 08:44:42;;;;;;;1.98;1.67;;;;;;;22.93;40.68;101004.91;20867449;27;96954;-80
2022/06/18 08:54:50;;;;;;;2.50;1.50;;;;;;;22.98;40.56;100983.44;20862281;27;97149;-81
2022/06/18 09:05:19;;;;;;;2.58;1.90;;;;;;;23.05;40.42;100986.47;20860670;27;101379;-80
2022/06/18 09:15:42;;;;;;;2.60;1.45;;;;;;;23.09;40.55;100972.91;20855607;27;97785;-80
2022/06/18 09:25:47;;;;;;;3.83;1.55;;;;;;;23.15;40.38;100964.50;20861397;27;100155;-79
2022/06/18 09:35:53;;;;;;;2.20;1.80;;;;;;;23.18;40.52;100966.94;20854326;27;100917;-81
2022/06/18 09:45:59;;;;;;;1.60;1.50;;;;;;;23.23;40.62;100963.97;20859050;27;100613;-80
2022/06/18 09:56:13;;;;;;;2.33;1.40;;;;;;;23.27;40.25;100946.91;20844521;27;97165;-80
2022/06/18 10:16:51;;;;;;;1.67;1.58;;;;;;;23.37;40.13;100928.53;20879694;27;97686;-81
2022/06/18 10:27:11;;;;;;;2.80;1.40;;;;;;;23.42;40.13;100918.44;20876451;27;98163;-80
2022/06/18 10:37:26;;;;;;;2.45;1.45;;;;;;;23.48;40.30;100909.19;20868404;27;97644;-80
2022/06/18 10:47:36;;;;;;;1.55;1.45;;;;;;;23.53;40.27;100907.00;20866729;27;99855;-80
2022/06/18 10:57:37;;;;;;;2.03;1.70;;;;;;;23.59;40.47;100901.22;20872616;27;97317;-80
2022/06/18 11:07:38;;;;;;;1.90;1.40;;;;;;;23.64;40.50;100896.44;20870066;27;100376;-81
2022/06/18 11:17:43;;;;;;;1.60;1.50;;;;;;;23.72;40.40;100884.41;20878622;27;97573;-81
2022/06/18 11:27:47;;;;;;;1.65;1.50;;;;;;;23.79;40.32;100877.63;20881843;27;97307;-81
2022/06/18 11:37:59;;;;;;;1.77;1.67;;;;;;;23.86;40.34;100857.66;20870806;27;99352;-81
2022/06/18 11:48:12;;;;;;;2.40;1.60;;;;;;;23.90;40.27;100848.53;20880134;27;97859;-80
2022/06/18 11:58:44;;;;;;;1.77;1.67;;;;;;;23.98;40.30;100829.41;20889822;27;98166;-80
2022/06/18 12:08:45;;;;;;;1.55;1.45;;;;;;;24.04;40.54;100817.50;20877841;27;97296;-80
2022/06/18 12:18:58;;;;;;;1.50;1.40;;;;;;;24.11;40.32;100810.72;20874063;27;97003;-81
2022/06/18 12:29:13;;;;;;;1.63;1.52;;;;;;;24.19;40.47;100805.59;20877570;27;98491;-80
2022/06/18 12:39:41;;;;;;;2.35;1.30;;;;;;;24.27;40.28;100794.41;20861931;27;100423;-81
2022/06/18 12:50:02;;;;;;;1.40;1.20;;;;;;;24.33;40.20;100790.38;20874977;27;98242;-81
2022/06/18 13:00:17;;;;;;;1.73;1.10;;;;;;;24.40;40.10;100775.66;20873134;27;98318;-81
2022/06/18 13:10:51;;;;;;;1.33;1.23;;;;;;;24.47;40.11;100760.94;20897773;27;97410;-80
2022/06/18 13:20:56;;;;;;;1.30;1.20;;;;;;;24.54;40.24;100742.72;20878568;27;100465;-81
2022/06/18 13:31:09;;;;;;;1.40;1.30;;;;;;;24.59;40.25;100732.56;20868221;27;97867;-80
2022/06/18 13:41:13;;;;;;;1.48;1.38;;;;;;;24.66;40.01;100728.44;20879607;27;97562;-79
2022/06/18 13:51:36;;;;;;;1.80;1.23;;;;;;;24.70;39.94;100723.72;20885330;27;97466;-81
2022/06/18 14:01:47;;;;;;;1.00;1.00;;;;;;;24.75;40.29;100716.22;20881360;27;97141;-80
2022/06/18 14:12:05;;;;;;;1.03;1.03;;;;;;;24.82;40.07;100693.50;20875953;27;97677;-79
2022/06/18 14:22:28;;;;;;;1.27;1.17;;;;;;;24.87;40.17;100683.34;20870618;27;97834;-80
2022/06/18 14:32:49;;;;;;;1.20;1.10;;;;;;;24.92;40.05;100689.06;20877200;27;100913;-80
2022/06/18 14:43:09;;;;;;;1.20;1.10;;;;;;;24.96;39.86;100676.38;20861442;27;97009;-81
2022/06/18 14:53:40;;;;;;;1.10;1.00;;;;;;;24.99;40.04;100657.59;20881713;27;101043;-80
2022/06/18 15:03:56;;;;;;;0.90;0.90;;;;;;;25.02;39.99;100644.03;20861847;27;97136;-81
2022/06/18 15:13:58;;;;;;;1.33;0.88;;;;;;;25.06;39.76;100639.31;20856766;27;101638;-81
2022/06/18 15:24:02;;;;;;;1.10;1.10;;;;;;;25.09;39.69;100631.09;20847550;27;97062;-81
2022/06/18 15:34:21;;;;;;;1.15;0.95;;;;;;;25.12;39.72;100628.19;20861456;27;98867;-81
2022/06/18 15:44:27;;;;;;;1.30;0.93;;;;;;;25.14;40.00;100625.38;20864065;27;97626;-79
2022/06/18 15:54:34;;;;;;;0.90;0.90;;;;;;;25.16;39.63;100626.91;20872328;27;97091;-80
2022/06/18 16:04:36;;;;;;;0.90;0.90;;;;;;;25.16;39.77;100623.41;20861864;27;99622;-80
2022/06/18 16:14:45;;;;;;;;;;;;;;;25.17;39.63;100619.78;20859971;27;97143;-80
2022/06/18 16:24:47;;;;;;;0.95;0.88;;;;;;;25.15;39.89;100617.28;20871403;27;97209;-81
2022/06/18 16:34:47;;;;;;;1.10;1.00;;;;;;;25.16;39.82;100626.06;20857834;27;97417;-81
2022/06/18 16:44:51;;;;;;;0.70;0.70;;;;;;;25.15;39.68;100622.59;20862007;27;99013;-81
2022/06/18 16:55:02;;;;;;;0.90;0.90;;;;;;;25.14;39.64;100618.25;20871257;27;98722;-81
2022/06/18 17:05:02;;;;;;;0.80;0.80;;;;;;;25.13;39.63;100616.59;20889549;27;97814;-80
2022/06/18 17:15:04;;;;;;;0.93;0.93;;;;;;;25.10;39.83;100607.09;20861842;27;97100;-79
2022/06/18 17:35:25;;;;;;;0.90;0.90;;;;;;;25.05;40.05;100592.63;20852361;27;98378;-79
2022/06/18 17:45:26;;;;;;;0.73;0.73;;;;;;;25.01;39.79;100589.41;20852823;27;97077;-80
2022/06/18 17:55:26;;;;;;;0.75;0.75;;;;;;;24.98;39.85;100581.72;20846921;27;101201;-80
2022/06/18 18:05:27;;;;;;;1.50;0.90;;;;;;;24.97;39.83;100585.34;20864323;27;98408;-79
2022/06/18 18:15:28;;;;;;;1.05;0.80;;;;;;;24.95;40.07;100587.31;20851574;27;97761;-79
2022/06/18 18:25:28;;;;;;;9.85;1.08;;;;;;;24.98;39.84;100594.97;20854062;27;101503;-81
2022/06/18 18:35:30;;;;;;;5.00;1.37;;;;;;;24.97;38.60;100595.13;20843943;27;97308;-79
2022/06/18 18:45:31;;;;;;;4.00;1.50;;;;;;;24.87;35.23;100595.13;20820597;27;98669;-77
2022/06/18 18:55:32;;;;;;;3.30;1.52;;;;;;;24.76;35.27;100602.19;20806080;27;99827;-75
2022/06/18 19:05:33;;;;;;;4.13;1.80;;;;;;;24.63;35.37;100609.53;20808047;27;98973;-76
2022/06/18 19:15:43;;;;;;;2.50;1.83;;;;;;;24.53;35.71;100621.91;20816078;27;97449;-74
2022/06/18 19:25:46;;;;;;;1.92;1.75;;;;;;;24.35;36.32;100622.56;20824729;27;99870;-74
2022/06/18 19:35:47;;;;;;;2.17;1.80;;;;;;;24.22;36.62;100633.38;20802361;27;101095;-76
2022/06/18 19:45:49;;;;;;;5.55;2.13;;;;;;;24.10;36.77;100648.50;20845611;27;96932;-75
2022/06/18 19:55:49;;;;;;;5.78;2.00;;;;;;;24.03;37.15;100642.06;20844254;27;96969;-75
2022/06/18 20:05:50;;;;;;;2.30;2.10;;;;;;;24.03;37.39;100638.59;20840617;27;96968;-76
2022/06/18 20:15:50;;;;;;;4.38;2.08;;;;;;;24.09;37.46;100641.53;20835103;27;100866;-76
2022/06/18 20:25:52;;;;;;;3.75;2.30;;;;;;;23.98;38.20;100633.69;20826264;27;97843;-75
2022/06/18 20:35:53;;;;;;;5.73;2.13;;;;;;;23.94;37.93;100643.69;20822157;27;97788;-76
2022/06/18 20:45:54;;;;;;;3.53;2.55;;;;;;;23.92;37.92;100647.41;20810471;27;97904;-76
2022/06/18 21:06:14;;;;;;;3.15;2.40;;;;;;;23.90;38.45;100646.69;20807382;27;97175;-76
2022/06/18 21:16:15;;;;;;;3.65;2.25;;;;;;;23.87;38.51;100649.59;20817299;27;97677;-76
2022/06/18 21:26:16;;;;;;;6.57;2.50;;;;;;;23.85;38.95;100648.88;20810955;27;102194;-76
2022/06/18 21:46:38;;;;;;;4.38;2.65;;;;;;;23.75;39.72;100648.81;20807964;27;98031;-76
2022/06/18 21:56:41;;;;;;;5.65;3.40;;;;;;;23.70;39.99;100657.13;20812155;27;101246;-77
2022/06/18 22:06:42;;;;;;;5.22;3.10;;;;;;;23.66;40.50;100653.91;20810913;27;97955;-76
2022/06/18 22:27:01;;;;;;;5.53;3.05;;;;;;;23.47;41.35;100664.34;20811659;27;100944;-76
2022/06/18 22:37:03;;;;;;;4.93;3.17;;;;;;;23.47;41.92;100672.28;20814210;27;98610;-75
2022/06/18 22:47:05;;;;;;;4.30;3.60;;;;;;;23.40;42.34;100671.97;20820485;27;98692;-76
2022/06/18 22:57:06;;;;;;;4.43;3.38;;;;;;;23.31;42.67;100664.78;20824897;27;98737;-76
2022/06/18 23:07:09;;;;;;;6.70;3.50;;;;;;;23.23;42.98;100675.97;20826746;27;97841;-76
2022/06/18 23:17:13;;;;;;;6.22;3.45;;;;;;;23.20;42.94;100673.59;20836109;27;100457;-76
2022/06/18 23:27:13;;;;;;;5.68;3.33;;;;;;;23.09;43.30;100682.34;20826319;27;98246;-77
2022/06/18 23:37:21;;;;;;;7.20;3.47;;;;;;;23.02;43.62;100694.38;20820031;27;97703;-76
2022/06/18 23:47:21;;;;;;;4.68;3.03;;;;;;;22.88;44.11;100694.66;20830738;27;102328;-76
2022/06/18 23:57:25;;;;;;;6.10;4.07;;;;;;;22.81;44.59;100699.56;20818823;27;96943;-76
